createdAt,value
2023-05-11T00:02:15.082Z,94.60
2023-05-11T00:04:42.090Z,94.60
2023-05-11T00:07:08.909Z,94.60
2023-05-11T00:09:35.887Z,94.70
2023-05-11T00:12:02.901Z,94.50
2023-05-11T00:14:29.986Z,94.60
2023-05-11T00:16:56.785Z,94.80
2023-05-11T00:19:23.576Z,94.90
2023-05-11T00:21:50.372Z,95.00
2023-05-11T00:24:17.278Z,94.80
2023-05-11T00:26:44.157Z,94.70
2023-05-11T00:29:10.985Z,94.80
2023-05-11T00:31:37.826Z,94.90
2023-05-11T00:34:04.665Z,95.00
2023-05-11T00:36:31.550Z,94.70
2023-05-11T00:38:58.399Z,95.00
2023-05-11T00:41:25.523Z,94.70
2023-05-11T00:43:52.320Z,94.40
2023-05-11T00:46:19.119Z,94.50
2023-05-11T00:48:46.123Z,94.50
2023-05-11T00:51:13.575Z,94.30
2023-05-11T00:53:40.853Z,94.20
2023-05-11T00:56:08.958Z,94.30
2023-05-11T00:58:36.642Z,94.30
2023-05-11T01:01:04.004Z,94.20
2023-05-11T01:03:32.657Z,93.90
2023-05-11T01:06:17.298Z,94.00
2023-05-11T01:08:56.762Z,93.90
2023-05-11T01:11:28.253Z,94.00
2023-05-11T01:14:11.917Z,93.90
2023-05-11T01:16:40.619Z,93.90
2023-05-11T01:19:15.805Z,94.10
2023-05-11T01:21:45.832Z,93.90
2023-05-11T01:24:45.371Z,93.90
2023-05-11T01:27:30.074Z,93.80
2023-05-11T01:30:26.022Z,93.70
2023-05-11T01:32:58.081Z,93.60
2023-05-11T01:35:27.595Z,93.60
2023-05-11T01:37:57.454Z,93.60
2023-05-11T01:40:29.100Z,93.70
2023-05-11T01:43:12.086Z,93.60
2023-05-11T01:45:50.546Z,93.30
2023-05-11T01:48:28.025Z,93.30
2023-05-11T01:50:59.281Z,93.10
2023-05-11T01:53:28.068Z,93.20
2023-05-11T01:55:58.331Z,93.10
2023-05-11T01:58:27.128Z,93.30
2023-05-11T02:00:55.210Z,93.00
2023-05-11T02:03:24.331Z,93.00
2023-05-11T02:05:52.738Z,93.10
2023-05-11T02:08:21.453Z,93.10
2023-05-11T02:10:50.416Z,93.00
2023-05-11T02:13:19.971Z,93.00
2023-05-11T02:15:50.871Z,93.20
2023-05-11T02:18:19.223Z,93.20
2023-05-11T02:20:48.130Z,93.30
2023-05-11T02:23:17.121Z,93.20
2023-05-11T02:25:45.073Z,93.20
2023-05-11T02:28:12.074Z,93.30
2023-05-11T02:30:46.889Z,93.50
2023-05-11T02:33:39.204Z,93.50
2023-05-11T02:36:08.166Z,93.60
2023-05-11T02:38:36.084Z,93.70
2023-05-11T02:41:07.259Z,93.80
2023-05-11T02:43:40.646Z,93.80
2023-05-11T02:46:13.433Z,93.80
2023-05-11T02:48:45.485Z,93.80
2023-05-11T02:51:15.619Z,93.90
2023-05-11T02:53:45.379Z,93.90
2023-05-11T02:56:12.735Z,94.00
2023-05-11T02:58:42.993Z,94.00
2023-05-11T03:01:10.411Z,94.00
2023-05-11T03:03:37.858Z,93.90
2023-05-11T03:06:05.850Z,94.00
2023-05-11T03:08:33.094Z,93.90
2023-05-11T03:11:03.417Z,94.00
2023-05-11T03:13:31.823Z,93.90
2023-05-11T03:16:02.479Z,94.00
2023-05-11T03:18:31.181Z,94.00
2023-05-11T03:21:00.576Z,93.80
2023-05-11T03:23:30.036Z,93.80
2023-05-11T03:25:58.638Z,93.80
2023-05-11T03:28:26.711Z,93.80
2023-05-11T03:30:54.181Z,94.00
2023-05-11T03:33:21.084Z,93.80
2023-05-11T03:35:51.047Z,93.90
2023-05-11T03:38:22.281Z,93.80
2023-05-11T03:40:51.655Z,93.90
2023-05-11T03:43:19.230Z,93.80
2023-05-11T03:45:48.048Z,94.10
2023-05-11T03:48:16.598Z,94.20
2023-05-11T03:50:44.166Z,94.10
2023-05-11T03:53:12.161Z,94.20
2023-05-11T03:55:39.151Z,94.10
2023-05-11T03:58:09.683Z,94.10
2023-05-11T04:00:41.054Z,94.10
2023-05-11T04:03:11.588Z,94.00
2023-05-11T04:05:38.509Z,94.20
2023-05-11T04:08:06.044Z,94.10
2023-05-11T04:10:33.261Z,94.10
2023-05-11T04:13:00.069Z,94.10
2023-05-11T04:15:26.902Z,94.10
2023-05-11T04:17:53.782Z,94.20
2023-05-11T04:20:20.843Z,94.10
2023-05-11T04:22:47.834Z,94.00
2023-05-11T04:25:14.790Z,94.10
2023-05-11T04:27:41.565Z,94.10
2023-05-11T04:30:08.986Z,94.10
2023-05-11T04:32:35.947Z,94.00
2023-05-11T04:35:02.889Z,93.70
2023-05-11T04:37:30.099Z,93.90
2023-05-11T04:39:57.400Z,93.90
2023-05-11T04:42:24.344Z,93.90
2023-05-11T04:44:54.590Z,94.00
2023-05-11T04:47:21.624Z,93.70
2023-05-11T04:49:48.485Z,93.70
2023-05-11T04:52:15.365Z,93.60
2023-05-11T04:54:42.273Z,93.40
2023-05-11T04:57:09.111Z,93.50
2023-05-11T04:59:36.013Z,93.30
2023-05-11T05:02:02.856Z,93.30
2023-05-11T05:04:29.833Z,93.00
2023-05-11T05:06:56.738Z,93.10
2023-05-11T05:09:23.549Z,93.20
2023-05-11T05:11:50.327Z,93.20
2023-05-11T05:14:17.093Z,93.00
2023-05-11T05:16:43.928Z,92.80
2023-05-11T05:19:11.073Z,93.00
2023-05-11T05:21:38.025Z,92.80
2023-05-11T05:24:06.170Z,92.80
2023-05-11T05:26:33.209Z,92.90
2023-05-11T05:28:59.996Z,93.10
2023-05-11T05:31:26.866Z,93.10
2023-05-11T05:33:53.702Z,93.00
2023-05-11T05:36:20.462Z,93.10
2023-05-11T05:38:47.250Z,93.10
2023-05-11T05:41:14.039Z,93.00
2023-05-11T05:43:40.837Z,92.90
2023-05-11T05:46:07.817Z,93.10
2023-05-11T05:48:34.722Z,93.20
2023-05-11T05:51:01.798Z,93.00
2023-05-11T05:53:29.148Z,93.00
2023-05-11T05:55:56.015Z,92.70
2023-05-11T05:58:22.820Z,92.90
2023-05-11T06:00:49.701Z,92.50
2023-05-11T06:03:16.719Z,92.80
2023-05-11T06:05:43.575Z,92.70
2023-05-11T06:08:11.323Z,93.00
2023-05-11T06:10:38.756Z,92.50
2023-05-11T06:13:05.979Z,92.60
2023-05-11T06:15:32.740Z,92.90
2023-05-11T06:17:59.577Z,93.00
2023-05-11T06:20:26.705Z,93.20
2023-05-11T06:22:53.611Z,92.60
2023-05-11T06:25:20.413Z,92.60
2023-05-11T06:27:47.234Z,92.90
2023-05-11T06:30:14.269Z,92.80
2023-05-11T06:32:41.065Z,92.70
2023-05-11T06:35:08.185Z,92.60
2023-05-11T06:37:35.534Z,92.70
2023-05-11T06:40:02.471Z,92.70
2023-05-11T06:42:29.924Z,92.30
2023-05-11T06:44:56.846Z,92.00
2023-05-11T06:47:23.754Z,92.30
2023-05-11T06:49:50.625Z,92.20
2023-05-11T06:52:17.400Z,92.20
2023-05-11T06:54:44.254Z,92.40
2023-05-11T06:57:12.682Z,92.10
2023-05-11T06:59:40.642Z,91.60
2023-05-11T07:02:07.475Z,92.10
2023-05-11T07:04:34.345Z,92.60
2023-05-11T07:07:01.303Z,92.20
2023-05-11T07:09:28.447Z,92.30
2023-05-11T07:11:56.140Z,92.10
2023-05-11T07:14:22.920Z,91.70
2023-05-11T07:16:52.839Z,92.10
2023-05-11T07:19:19.895Z,91.80
2023-05-11T07:21:46.873Z,91.50
2023-05-11T07:24:13.716Z,91.60
2023-05-11T07:26:40.501Z,90.40
2023-05-11T07:29:07.510Z,90.70
2023-05-11T07:31:35.630Z,91.40
2023-05-11T07:34:02.488Z,91.20
2023-05-11T07:36:30.003Z,90.30
2023-05-11T07:38:57.923Z,90.60
2023-05-11T07:41:26.823Z,90.20
2023-05-11T07:43:54.660Z,90.10
2023-05-11T07:46:21.502Z,90.70
2023-05-11T07:48:48.553Z,90.50
2023-05-11T07:51:15.375Z,90.20
2023-05-11T07:53:48.353Z,90.70
2023-05-11T07:56:15.161Z,90.50
2023-05-11T07:58:41.963Z,90.10
2023-05-11T08:01:09.009Z,90.70
2023-05-11T08:03:35.917Z,90.50
2023-05-11T08:06:03.456Z,89.80
2023-05-11T08:08:30.649Z,88.50
2023-05-11T08:10:57.471Z,88.80
2023-05-11T08:13:25.861Z,88.80
2023-05-11T08:15:52.789Z,88.10
2023-05-11T08:18:19.760Z,87.00
2023-05-11T08:20:46.616Z,86.00
2023-05-11T08:23:17.978Z,86.70
2023-05-11T08:25:51.379Z,86.70
2023-05-11T08:28:18.688Z,86.60
2023-05-11T08:30:45.658Z,86.50
2023-05-11T08:33:32.122Z,86.60
2023-05-11T08:36:00.493Z,86.30
2023-05-11T08:38:27.294Z,87.80
2023-05-11T08:40:54.670Z,87.90
2023-05-11T08:43:24.125Z,88.10
2023-05-11T08:45:57.452Z,87.10
2023-05-11T08:48:24.481Z,88.40
2023-05-11T08:50:51.978Z,89.00
2023-05-11T08:53:18.845Z,88.70
2023-05-11T08:55:47.799Z,89.00
2023-05-11T08:58:19.407Z,89.10
2023-05-11T09:00:47.387Z,88.80
2023-05-11T09:03:15.424Z,88.90
2023-05-11T09:05:45.394Z,88.70
2023-05-11T09:08:14.141Z,88.50
2023-05-11T09:10:42.360Z,88.70
2023-05-11T09:13:09.457Z,89.10
2023-05-11T09:15:38.118Z,89.20
2023-05-11T09:18:05.558Z,89.70
2023-05-11T09:20:34.506Z,88.90
2023-05-11T09:23:01.762Z,88.70
2023-05-11T09:25:34.919Z,87.60
2023-05-11T09:28:01.916Z,88.30
2023-05-11T09:30:29.128Z,88.30
2023-05-11T09:33:01.000Z,88.20
2023-05-11T09:35:35.075Z,87.80
2023-05-11T09:38:10.589Z,87.90
2023-05-11T09:40:52.161Z,87.20
2023-05-11T09:43:26.464Z,86.60
2023-05-11T09:45:56.168Z,87.30
2023-05-11T09:48:27.382Z,88.00
2023-05-11T09:51:05.929Z,87.20
2023-05-11T09:53:43.781Z,87.20
2023-05-11T09:56:11.949Z,87.40
2023-05-11T09:58:53.971Z,86.50
2023-05-11T10:01:32.891Z,86.60
2023-05-11T10:04:21.477Z,86.60
2023-05-11T10:06:53.419Z,85.60
2023-05-11T10:09:25.369Z,85.60
2023-05-11T10:11:55.143Z,85.70
2023-05-11T10:14:24.643Z,85.90
2023-05-11T10:16:52.481Z,85.90
2023-05-11T10:19:19.645Z,86.40
2023-05-11T10:21:47.158Z,86.20
2023-05-11T10:24:14.376Z,86.70
2023-05-11T10:26:41.439Z,86.20
2023-05-11T10:29:09.768Z,86.70
2023-05-11T10:31:37.601Z,86.30
2023-05-11T10:34:04.947Z,85.90
2023-05-11T10:36:31.889Z,85.30
2023-05-11T10:38:59.060Z,86.00
2023-05-11T10:41:51.599Z,86.10
2023-05-11T10:44:49.477Z,85.40
2023-05-11T10:47:49.494Z,85.40
2023-05-11T10:50:31.121Z,86.00
2023-05-11T10:53:19.210Z,85.00
2023-05-11T10:56:06.224Z,84.90
2023-05-11T10:58:42.215Z,85.10
2023-05-11T11:01:41.974Z,84.70
2023-05-11T11:04:11.562Z,83.70
2023-05-11T11:06:43.634Z,83.80
2023-05-11T11:09:13.671Z,82.90
2023-05-11T11:11:46.000Z,83.30
2023-05-11T11:14:15.105Z,83.50
2023-05-11T11:17:02.331Z,85.50
2023-05-11T11:19:32.758Z,84.00
2023-05-11T11:22:01.343Z,82.10
2023-05-11T11:24:42.692Z,82.10
2023-05-11T11:27:10.062Z,81.90
2023-05-11T11:29:37.982Z,81.30
2023-05-11T11:32:20.109Z,81.40
2023-05-11T11:34:47.947Z,79.80
2023-05-11T11:37:16.618Z,81.30
2023-05-11T11:39:43.351Z,80.10
2023-05-11T11:42:15.353Z,80.80
2023-05-11T11:44:44.230Z,80.10
2023-05-11T11:47:21.663Z,80.90
2023-05-11T11:49:51.074Z,80.90
2023-05-11T11:52:27.125Z,80.30
2023-05-11T11:55:01.391Z,81.00
2023-05-11T11:57:34.507Z,78.60
2023-05-11T12:00:07.080Z,81.00
2023-05-11T12:02:34.466Z,79.70
2023-05-11T12:05:02.203Z,81.20
2023-05-11T12:07:34.147Z,78.00
2023-05-11T12:10:04.588Z,78.90
2023-05-11T12:12:32.282Z,78.80
2023-05-11T12:15:00.033Z,79.60
2023-05-11T12:17:29.747Z,79.20
2023-05-11T12:20:12.616Z,80.80
2023-05-11T12:22:39.872Z,80.20
2023-05-11T12:25:07.888Z,81.00
2023-05-11T12:27:34.726Z,80.70
2023-05-11T12:30:02.084Z,78.90
2023-05-11T12:32:30.988Z,79.80
2023-05-11T12:35:02.551Z,80.00
2023-05-11T12:37:31.170Z,80.10
2023-05-11T12:39:59.104Z,80.30
2023-05-11T12:42:26.716Z,80.50
2023-05-11T12:44:54.432Z,80.60
2023-05-11T12:47:21.321Z,81.30
2023-05-11T12:49:48.239Z,81.40
2023-05-11T12:52:15.150Z,80.70
2023-05-11T12:54:51.360Z,81.60
2023-05-11T12:57:25.421Z,82.90
2023-05-11T13:00:08.023Z,81.40
2023-05-11T13:02:35.198Z,81.60
2023-05-11T13:05:12.204Z,81.20
2023-05-11T13:07:39.257Z,80.10
2023-05-11T13:10:06.609Z,81.90
2023-05-11T13:12:34.451Z,81.30
2023-05-11T13:15:12.510Z,82.20
2023-05-11T13:17:42.199Z,82.20
2023-05-11T13:20:18.606Z,82.30
2023-05-11T13:22:46.492Z,82.30
2023-05-11T13:25:23.228Z,83.90
2023-05-11T13:27:49.977Z,82.40
2023-05-11T13:30:16.886Z,82.40
2023-05-11T13:32:43.839Z,82.80
2023-05-11T13:35:11.137Z,84.10
2023-05-11T13:37:38.288Z,84.50
2023-05-11T13:40:08.711Z,83.40
2023-05-11T13:42:35.594Z,83.00
2023-05-11T13:45:02.469Z,82.60
2023-05-11T13:47:30.153Z,84.20
2023-05-11T13:49:57.339Z,83.30
2023-05-11T13:52:24.134Z,82.50
2023-05-11T13:54:51.350Z,83.00
2023-05-11T13:57:18.273Z,84.50
2023-05-11T13:59:45.064Z,83.70
2023-05-11T14:02:12.156Z,83.80
2023-05-11T14:04:40.363Z,83.90
2023-05-11T14:07:07.777Z,85.30
2023-05-11T14:09:34.808Z,83.80
2023-05-11T14:12:01.604Z,83.90
2023-05-11T14:14:28.924Z,85.10
2023-05-11T14:16:56.766Z,84.40
2023-05-11T14:19:23.691Z,83.50
2023-05-11T14:21:50.734Z,83.80
2023-05-11T14:24:17.551Z,84.80
2023-05-11T14:26:44.435Z,84.80
2023-05-11T14:29:11.399Z,84.80
2023-05-11T14:31:38.820Z,84.10
2023-05-11T14:34:06.143Z,85.10
2023-05-11T14:36:33.537Z,85.80
2023-05-11T14:39:00.674Z,84.40
2023-05-11T14:41:27.524Z,85.60
2023-05-11T14:43:54.432Z,85.70
2023-05-11T14:46:21.873Z,85.40
2023-05-11T14:48:49.593Z,84.40
2023-05-11T14:51:16.435Z,84.60
2023-05-11T14:53:43.180Z,84.90
2023-05-11T14:56:10.183Z,85.00
2023-05-11T14:58:37.022Z,85.80
2023-05-11T15:01:04.935Z,86.30
2023-05-11T15:03:31.783Z,86.20
2023-05-11T15:05:58.705Z,85.20
2023-05-11T15:08:30.275Z,85.50
2023-05-11T15:10:57.662Z,85.70
2023-05-11T15:13:24.634Z,86.70
2023-05-11T15:15:51.863Z,87.00
2023-05-11T15:18:19.045Z,84.90
2023-05-11T15:20:47.198Z,85.40
2023-05-11T15:23:17.755Z,86.90
2023-05-11T15:25:45.337Z,85.80
2023-05-11T15:28:12.525Z,86.20
2023-05-11T15:30:41.745Z,87.30
2023-05-11T15:33:10.095Z,86.70
2023-05-11T15:35:37.797Z,86.40
2023-05-11T15:38:04.919Z,86.80
2023-05-11T15:40:32.494Z,86.90
2023-05-11T15:42:59.850Z,86.40
2023-05-11T15:45:27.383Z,87.70
2023-05-11T15:47:54.577Z,88.30
2023-05-11T15:50:22.230Z,88.60
2023-05-11T15:52:49.456Z,88.00
2023-05-11T15:55:16.561Z,89.20
2023-05-11T15:57:43.640Z,88.50
2023-05-11T16:00:11.568Z,87.60
2023-05-11T16:02:38.924Z,87.70
2023-05-11T16:05:06.416Z,87.70
2023-05-11T16:07:33.563Z,87.50
2023-05-11T16:10:00.859Z,88.30
2023-05-11T16:12:27.902Z,88.40
2023-05-11T16:14:54.981Z,88.90
2023-05-11T16:17:22.142Z,88.60
2023-05-11T16:19:49.084Z,89.20
2023-05-11T16:22:16.038Z,89.10
2023-05-11T16:24:42.994Z,89.00
2023-05-11T16:27:10.017Z,89.70
2023-05-11T16:29:36.997Z,89.40
2023-05-11T16:32:04.114Z,89.30
2023-05-11T16:34:31.157Z,90.10
2023-05-11T16:36:59.150Z,90.50
2023-05-11T16:39:26.763Z,89.80
2023-05-11T16:41:53.579Z,89.90
2023-05-11T16:44:20.419Z,89.80
2023-05-11T16:46:47.937Z,90.00
2023-05-11T16:49:14.832Z,90.00
2023-05-11T16:51:42.534Z,89.80
2023-05-11T16:54:10.393Z,89.60
2023-05-11T16:56:37.377Z,89.70
2023-05-11T16:59:04.405Z,90.60
2023-05-11T17:01:31.955Z,91.40
2023-05-11T17:03:58.924Z,91.40
2023-05-11T17:06:27.421Z,91.50
2023-05-11T17:08:54.716Z,91.20
2023-05-11T17:11:21.662Z,91.40
2023-05-11T17:13:48.481Z,91.70
2023-05-11T17:16:15.475Z,92.00
2023-05-11T17:18:42.626Z,91.70
2023-05-11T17:21:09.708Z,91.70
2023-05-11T17:23:36.599Z,92.10
2023-05-11T17:26:10.222Z,92.20
2023-05-11T17:28:40.367Z,92.30
2023-05-11T17:31:09.358Z,92.70
2023-05-11T17:33:36.389Z,92.70
2023-05-11T17:36:04.117Z,92.90
2023-05-11T17:38:31.170Z,93.00
2023-05-11T17:41:04.756Z,93.00
2023-05-11T17:43:32.764Z,93.10
2023-05-11T17:46:00.508Z,93.00
2023-05-11T17:48:27.399Z,93.20
2023-05-11T17:50:54.166Z,93.70
2023-05-11T17:53:20.931Z,93.20
2023-05-11T17:55:47.720Z,93.50
2023-05-11T17:58:14.528Z,93.20
2023-05-11T18:00:41.372Z,92.60
2023-05-11T18:03:08.270Z,92.30
2023-05-11T18:05:47.457Z,92.50
2023-05-11T18:08:15.717Z,92.50
2023-05-11T18:10:42.894Z,92.60
2023-05-11T18:13:09.992Z,92.80
2023-05-11T18:15:37.758Z,92.60
2023-05-11T18:18:05.266Z,92.60
2023-05-11T18:20:32.165Z,92.70
2023-05-11T18:22:59.089Z,93.00
2023-05-11T18:25:27.921Z,92.90
2023-05-11T18:27:55.054Z,92.90
2023-05-11T18:30:21.999Z,92.90
2023-05-11T18:32:49.006Z,93.10
2023-05-11T18:35:16.741Z,93.00
2023-05-11T18:37:43.540Z,92.80
2023-05-11T18:40:10.749Z,93.20
2023-05-11T18:42:37.573Z,93.30
2023-05-11T18:45:04.734Z,93.40
2023-05-11T18:47:34.923Z,93.40
2023-05-11T18:50:02.886Z,93.50
2023-05-11T18:52:30.411Z,93.80
2023-05-11T18:54:58.220Z,93.80
2023-05-11T18:57:25.024Z,93.90
2023-05-11T18:59:52.406Z,94.10
2023-05-11T19:02:19.262Z,94.00
2023-05-11T19:04:46.242Z,94.00
2023-05-11T19:07:13.032Z,94.20
2023-05-11T19:09:39.864Z,94.30
2023-05-11T19:12:07.044Z,94.50
2023-05-11T19:14:34.805Z,94.60
2023-05-11T19:17:02.326Z,94.70
2023-05-11T19:19:29.430Z,94.80
2023-05-11T19:21:56.286Z,94.90
2023-05-11T19:24:23.123Z,95.00
2023-05-11T19:27:02.588Z,94.90
2023-05-11T19:29:33.219Z,94.90
2023-05-11T19:32:00.043Z,94.90
2023-05-11T19:34:26.953Z,95.00
2023-05-11T19:36:53.727Z,94.90
2023-05-11T19:39:20.524Z,94.90
2023-05-11T19:41:47.676Z,94.90
2023-05-11T19:44:14.465Z,94.90
2023-05-11T19:46:46.305Z,94.90
2023-05-11T19:49:15.268Z,94.90
2023-05-11T19:51:42.616Z,94.90
2023-05-11T19:54:10.760Z,94.90
2023-05-11T19:56:37.563Z,94.90
2023-05-11T19:59:04.776Z,94.80
2023-05-11T20:01:31.849Z,94.80
2023-05-11T20:03:59.269Z,94.90
2023-05-11T20:06:26.282Z,94.70
2023-05-11T20:08:54.154Z,94.80
2023-05-11T20:11:22.111Z,94.80
2023-05-11T20:13:49.331Z,94.80
2023-05-11T20:16:16.351Z,95.00
2023-05-11T20:18:43.615Z,94.90
2023-05-11T20:21:11.212Z,94.80
2023-05-11T20:23:39.312Z,94.70
2023-05-11T20:26:06.866Z,94.80
2023-05-11T20:28:33.715Z,94.80
2023-05-11T20:31:00.540Z,94.90
2023-05-11T20:35:58.263Z,95.00
2023-05-11T20:38:25.474Z,94.90
2023-05-11T20:40:58.406Z,95.10
2023-05-11T20:43:28.258Z,95.10
2023-05-11T20:45:55.411Z,95.10
2023-05-11T20:48:32.395Z,95.10
2023-05-11T20:51:05.745Z,95.20
2023-05-11T20:53:32.600Z,95.10
2023-05-11T20:56:01.082Z,95.10
2023-05-11T20:58:29.906Z,95.30
2023-05-11T21:00:56.792Z,95.20
2023-05-11T21:03:25.650Z,95.20
2023-05-11T21:05:53.368Z,95.20
2023-05-11T21:08:20.283Z,95.10
2023-05-11T21:10:47.092Z,95.20
2023-05-11T21:13:13.940Z,95.10
2023-05-11T21:15:41.249Z,95.30
2023-05-11T21:18:08.167Z,95.20
2023-05-11T21:20:35.732Z,95.20
2023-05-11T21:23:02.681Z,95.20
2023-05-11T21:25:29.701Z,95.20
2023-05-11T21:27:56.552Z,95.20
2023-05-11T21:30:23.359Z,95.10
2023-05-11T21:32:50.782Z,95.20
2023-05-11T21:35:18.072Z,95.00
2023-05-11T21:37:49.216Z,95.10
2023-05-11T21:40:18.052Z,95.20
2023-05-11T21:42:45.154Z,95.20
2023-05-11T21:45:13.113Z,95.20
2023-05-11T21:47:39.915Z,95.10
2023-05-11T21:50:08.604Z,95.30
2023-05-11T21:52:36.377Z,95.40
2023-05-11T21:55:03.325Z,95.30
2023-05-11T21:57:30.275Z,95.30
2023-05-11T21:59:57.118Z,95.40
2023-05-11T22:02:23.919Z,95.30
2023-05-11T22:04:50.714Z,95.40
2023-05-11T22:07:17.607Z,95.40
2023-05-11T22:09:44.505Z,95.40
2023-05-11T22:12:11.887Z,95.50
2023-05-11T22:14:38.774Z,95.40
2023-05-11T22:17:06.084Z,95.50
2023-05-11T22:19:33.473Z,95.50
2023-05-11T22:22:00.375Z,95.30
2023-05-11T22:24:27.282Z,95.40
2023-05-11T22:26:54.658Z,95.50
2023-05-11T22:29:22.079Z,95.40
2023-05-11T22:31:51.991Z,95.50
2023-05-11T22:34:21.297Z,95.40
2023-05-11T22:36:48.157Z,95.40
2023-05-11T22:39:14.996Z,95.50
2023-05-11T22:41:41.856Z,95.50
2023-05-11T22:44:09.279Z,95.50
2023-05-11T22:46:36.461Z,95.30
2023-05-11T22:49:03.251Z,95.10
2023-05-11T22:51:30.082Z,95.30
2023-05-11T22:53:56.870Z,95.40
2023-05-11T22:56:23.636Z,95.30
2023-05-11T22:58:51.957Z,95.20
2023-05-11T23:01:18.926Z,95.20
2023-05-11T23:03:45.748Z,95.20
2023-05-11T23:06:12.539Z,95.20
2023-05-11T23:08:39.373Z,95.20
2023-05-11T23:11:07.491Z,95.20
2023-05-11T23:13:34.918Z,95.20
2023-05-11T23:16:03.836Z,95.10
2023-05-11T23:18:31.352Z,95.10
2023-05-11T23:20:59.390Z,95.20
2023-05-11T23:23:26.764Z,95.10
2023-05-11T23:25:53.795Z,95.00
2023-05-11T23:28:20.837Z,94.90
2023-05-11T23:30:47.677Z,95.00
2023-05-11T23:33:14.760Z,95.10
2023-05-11T23:35:41.867Z,95.00
2023-05-11T23:38:08.714Z,95.20
2023-05-11T23:40:36.228Z,95.10
2023-05-11T23:43:03.147Z,95.10
2023-05-11T23:45:29.956Z,95.20
2023-05-11T23:47:57.007Z,95.10
2023-05-11T23:50:23.805Z,95.10
2023-05-11T23:52:50.737Z,95.10
2023-05-11T23:55:18.049Z,95.10
2023-05-11T23:57:45.023Z,95.10
